sensor_id;sensor_type;location;lat;lon;timestamp;pressure;altitude;pressure_sealevel;temperature;humidity
74960;BME280;63518;49.572;1.106;2024-03-23T00:54:58;99651.47;;;5.49;100.00
74960;BME280;63518;49.572;1.106;2024-03-23T00:57:28;99646.25;;;4.99;100.00
74960;BME280;63518;49.572;1.106;2024-03-23T00:59:58;99661.00;;;5.47;100.00
74960;BME280;63518;49.572;1.106;2024-03-23T01:02:26;99657.38;;;5.14;100.00
74960;BME280;63518;49.572;1.106;2024-03-23T01:04:53;99663.09;;;5.13;100.00
74960;BME280;63518;49.572;1.106;2024-03-23T01:07:22;99662.66;;;5.21;100.00
74960;BME280;63518;49.572;1.106;2024-03-23T01:09:51;99660.25;;;5.24;100.00
74960;BME280;63518;49.572;1.106;2024-03-23T01:12:18;99677.94;;;5.17;100.00
74960;BME280;63518;49.572;1.106;2024-03-23T01:15:04;99666.72;;;4.96;100.00
74960;BME280;63518;49.572;1.106;2024-03-23T01:17:34;99660.69;;;4.94;100.00
74960;BME280;63518;49.572;1.106;2024-03-23T01:20:03;99668.75;;;5.06;100.00
74960;BME280;63518;49.572;1.106;2024-03-23T01:22:33;99673.22;;;4.90;100.00
74960;BME280;63518;49.572;1.106;2024-03-23T01:25:00;99671.91;;;4.76;100.00
74960;BME280;63518;49.572;1.106;2024-03-23T01:27:27;99671.25;;;4.86;100.00
74960;BME280;63518;49.572;1.106;2024-03-23T01:29:57;99669.91;;;4.88;100.00
74960;BME280;63518;49.572;1.106;2024-03-23T01:32:26;99661.59;;;4.78;100.00
74960;BME280;63518;49.572;1.106;2024-03-23T01:35:01;99661.19;;;4.69;100.00
74960;BME280;63518;49.572;1.106;2024-03-23T01:37:28;99657.94;;;4.72;100.00
74960;BME280;63518;49.572;1.106;2024-03-23T01:42:58;99660.03;;;4.65;100.00
74960;BME280;63518;49.572;1.106;2024-03-23T01:45:30;99654.69;;;4.75;100.00
74960;BME280;63518;49.572;1.106;2024-03-23T01:48:00;99660.69;;;4.72;100.00
74960;BME280;63518;49.572;1.106;2024-03-23T01:50:26;99658.25;;;4.54;100.00
74960;BME280;63518;49.572;1.106;2024-03-23T01:52:53;99667.53;;;4.53;100.00
74960;BME280;63518;49.572;1.106;2024-03-23T01:55:23;99653.78;;;4.48;100.00
74960;BME280;63518;49.572;1.106;2024-03-23T01:57:53;99673.16;;;4.46;100.00
74960;BME280;63518;49.572;1.106;2024-03-23T02:00:26;99663.72;;;4.54;100.00
74960;BME280;63518;49.572;1.106;2024-03-23T02:02:54;99663.38;;;4.50;100.00
74960;BME280;63518;49.572;1.106;2024-03-23T02:05:21;99661.72;;;4.49;100.00
74960;BME280;63518;49.572;1.106;2024-03-23T02:07:50;99658.69;;;4.46;100.00
74960;BME280;63518;49.572;1.106;2024-03-23T02:10:24;99662.47;;;4.45;100.00
74960;BME280;63518;49.572;1.106;2024-03-23T02:12:55;99654.84;;;4.47;100.00
74960;BME280;63518;49.572;1.106;2024-03-23T02:15:24;99665.63;;;4.54;100.00
74960;BME280;63518;49.572;1.106;2024-03-23T02:17:53;99660.16;;;4.54;100.00
74960;BME280;63518;49.572;1.106;2024-03-23T02:20:21;99668.22;;;4.65;100.00
74960;BME280;63518;49.572;1.106;2024-03-23T02:22:51;99654.03;;;4.46;100.00
74960;BME280;63518;49.572;1.106;2024-03-23T02:25:20;99661.59;;;4.78;100.00
74960;BME280;63518;49.572;1.106;2024-03-23T02:27:46;99659.34;;;4.75;100.00
74960;BME280;63518;49.572;1.106;2024-03-23T02:30:14;99661.63;;;4.83;100.00
74960;BME280;63518;49.572;1.106;2024-03-23T02:32:53;99653.88;;;4.53;100.00
74960;BME280;63518;49.572;1.106;2024-03-23T02:35:22;99653.38;;;4.78;100.00
74960;BME280;63518;49.572;1.106;2024-03-23T02:37:55;99649.28;;;4.59;100.00
74960;BME280;63518;49.572;1.106;2024-03-23T02:40:25;99651.81;;;4.65;100.00
74960;BME280;63518;49.572;1.106;2024-03-23T02:42:54;99655.31;;;4.61;100.00
74960;BME280;63518;49.572;1.106;2024-03-23T02:45:24;99646.47;;;4.75;100.00
74960;BME280;63518;49.572;1.106;2024-03-23T02:47:53;99653.63;;;4.38;100.00
74960;BME280;63518;49.572;1.106;2024-03-23T02:50:25;99648.53;;;4.63;100.00
74960;BME280;63518;49.572;1.106;2024-03-23T02:52:54;99646.25;;;4.38;100.00
74960;BME280;63518;49.572;1.106;2024-03-23T02:55:25;99646.97;;;4.50;100.00
74960;BME280;63518;49.572;1.106;2024-03-23T02:57:54;99656.44;;;4.43;100.00
74960;BME280;63518;49.572;1.106;2024-03-23T03:00:24;99648.84;;;4.11;100.00
74960;BME280;63518;49.572;1.106;2024-03-23T03:02:51;99653.06;;;4.19;100.00
74960;BME280;63518;49.572;1.106;2024-03-23T03:05:22;99654.59;;;4.48;100.00
74960;BME280;63518;49.572;1.106;2024-03-23T03:08:00;99658.44;;;4.31;100.00
74960;BME280;63518;49.572;1.106;2024-03-23T03:10:29;99660.81;;;4.44;100.00
74960;BME280;63518;49.572;1.106;2024-03-23T03:13:09;99669.72;;;4.17;100.00
74960;BME280;63518;49.572;1.106;2024-03-23T03:15:35;99658.94;;;4.11;100.00
74960;BME280;63518;49.572;1.106;2024-03-23T03:18:01;99663.09;;;4.30;100.00
74960;BME280;63518;49.572;1.106;2024-03-23T03:20:28;99659.19;;;4.65;100.00
74960;BME280;63518;49.572;1.106;2024-03-23T03:22:57;99664.06;;;4.41;100.00
74960;BME280;63518;49.572;1.106;2024-03-23T03:28:06;99660.41;;;4.74;100.00
74960;BME280;63518;49.572;1.106;2024-03-23T03:30:56;99660.84;;;4.66;100.00
74960;BME280;63518;49.572;1.106;2024-03-23T03:33:31;99663.50;;;4.77;100.00
74960;BME280;63518;49.572;1.106;2024-03-23T03:35:57;99660.06;;;4.48;100.00
74960;BME280;63518;49.572;1.106;2024-03-23T03:38:23;99651.53;;;4.45;100.00
74960;BME280;63518;49.572;1.106;2024-03-23T03:40:54;99653.28;;;4.73;100.00
74960;BME280;63518;49.572;1.106;2024-03-23T03:43:20;99659.06;;;4.55;100.00
74960;BME280;63518;49.572;1.106;2024-03-23T03:45:56;99654.09;;;4.52;100.00
74960;BME280;63518;49.572;1.106;2024-03-23T03:48:25;99654.47;;;4.60;100.00
74960;BME280;63518;49.572;1.106;2024-03-23T03:50:54;99658.63;;;4.63;100.00
74960;BME280;63518;49.572;1.106;2024-03-23T03:53:23;99655.28;;;4.77;100.00
74960;BME280;63518;49.572;1.106;2024-03-23T03:56:10;99646.56;;;4.81;100.00
74960;BME280;63518;49.572;1.106;2024-03-23T03:58:44;99649.34;;;4.64;100.00
74960;BME280;63518;49.572;1.106;2024-03-23T04:01:13;99641.41;;;4.62;100.00
74960;BME280;63518;49.572;1.106;2024-03-23T04:03:39;99652.91;;;5.08;100.00
74960;BME280;63518;49.572;1.106;2024-03-23T04:06:29;99662.53;;;4.89;100.00
74960;BME280;63518;49.572;1.106;2024-03-23T04:08:55;99656.81;;;4.52;100.00
74960;BME280;63518;49.572;1.106;2024-03-23T04:11:25;99656.34;;;4.76;100.00
74960;BME280;63518;49.572;1.106;2024-03-23T04:13:54;99663.16;;;5.18;100.00
74960;BME280;63518;49.572;1.106;2024-03-23T04:16:27;99658.94;;;4.66;100.00
74960;BME280;63518;49.572;1.106;2024-03-23T04:18:53;99664.13;;;4.46;100.00
74960;BME280;63518;49.572;1.106;2024-03-23T04:21:25;99661.19;;;4.69;100.00
74960;BME280;63518;49.572;1.106;2024-03-23T04:23:54;99664.56;;;4.38;100.00
74960;BME280;63518;49.572;1.106;2024-03-23T04:26:23;99667.41;;;4.65;100.00
74960;BME280;63518;49.572;1.106;2024-03-23T04:28:53;99661.41;;;4.85;100.00
74960;BME280;63518;49.572;1.106;2024-03-23T04:31:19;99662.38;;;4.57;100.00
74960;BME280;63518;49.572;1.106;2024-03-23T04:33:45;99659.09;;;4.38;100.00
74960;BME280;63518;49.572;1.106;2024-03-23T04:36:13;99664.56;;;4.38;100.00
74960;BME280;63518;49.572;1.106;2024-03-23T04:38:39;99666.78;;;4.41;100.00
74960;BME280;63518;49.572;1.106;2024-03-23T04:41:05;99673.81;;;4.37;100.00
74960;BME280;63518;49.572;1.106;2024-03-23T04:43:34;99679.72;;;4.29;100.00
74960;BME280;63518;49.572;1.106;2024-03-23T04:46:03;99680.78;;;4.44;100.00
74960;BME280;63518;49.572;1.106;2024-03-23T04:48:30;99671.50;;;4.29;100.00
74960;BME280;63518;49.572;1.106;2024-03-23T04:50:58;99672.94;;;4.31;100.00
74960;BME280;63518;49.572;1.106;2024-03-23T04:53:27;99684.94;;;4.47;100.00
74960;BME280;63518;49.572;1.106;2024-03-23T04:55:56;99678.56;;;4.25;100.00
74960;BME280;63518;49.572;1.106;2024-03-23T04:58:28;99690.66;;;4.12;100.00
74960;BME280;63518;49.572;1.106;2024-03-23T05:00:56;99686.75;;;4.41;100.00
74960;BME280;63518;49.572;1.106;2024-03-23T05:03:23;99691.31;;;4.19;100.00
74960;BME280;63518;49.572;1.106;2024-03-23T05:06:00;99691.91;;;4.38;100.00
74960;BME280;63518;49.572;1.106;2024-03-23T05:08:33;99685.59;;;4.20;100.00
74960;BME280;63518;49.572;1.106;2024-03-23T05:11:00;99676.50;;;4.32;100.00
74960;BME280;63518;49.572;1.106;2024-03-23T05:13:27;99670.63;;;4.06;100.00
74960;BME280;63518;49.572;1.106;2024-03-23T05:15:56;99676.00;;;3.84;100.00
74960;BME280;63518;49.572;1.106;2024-03-23T05:18:21;99678.63;;;3.96;100.00
74960;BME280;63518;49.572;1.106;2024-03-23T05:21:00;99682.19;;;3.80;100.00
74960;BME280;63518;49.572;1.106;2024-03-23T05:23:28;99676.31;;;3.88;100.00
74960;BME280;63518;49.572;1.106;2024-03-23T05:25:57;99682.38;;;3.90;100.00
74960;BME280;63518;49.572;1.106;2024-03-23T05:28:22;99692.91;;;3.98;100.00
74960;BME280;63518;49.572;1.106;2024-03-23T05:30:55;99696.50;;;3.87;100.00
74960;BME280;63518;49.572;1.106;2024-03-23T05:33:26;99692.56;;;4.11;100.00
74960;BME280;63518;49.572;1.106;2024-03-23T05:35:58;99698.38;;;4.15;100.00
74960;BME280;63518;49.572;1.106;2024-03-23T05:38:26;99700.28;;;4.14;100.00
74960;BME280;63518;49.572;1.106;2024-03-23T05:40:55;99687.03;;;4.06;100.00
74960;BME280;63518;49.572;1.106;2024-03-23T05:43:38;99692.81;;;4.10;100.00
74960;BME280;63518;49.572;1.106;2024-03-23T05:46:07;99698.81;;;3.78;100.00
74960;BME280;63518;49.572;1.106;2024-03-23T05:48:34;99695.44;;;3.88;100.00
74960;BME280;63518;49.572;1.106;2024-03-23T05:51:01;99695.75;;;3.75;100.00
74960;BME280;63518;49.572;1.106;2024-03-23T05:53:36;99700.16;;;3.76;100.00
74960;BME280;63518;49.572;1.106;2024-03-23T05:56:04;99701.69;;;3.72;100.00
74960;BME280;63518;49.572;1.106;2024-03-23T05:58:34;99705.25;;;3.72;100.00
74960;BME280;63518;49.572;1.106;2024-03-23T06:01:03;99708.41;;;3.81;100.00
74960;BME280;63518;49.572;1.106;2024-03-23T06:03:31;99707.84;;;3.96;100.00
74960;BME280;63518;49.572;1.106;2024-03-23T06:05:59;99710.72;;;3.89;100.00
74960;BME280;63518;49.572;1.106;2024-03-23T06:08:28;99712.19;;;4.08;100.00
74960;BME280;63518;49.572;1.106;2024-03-23T06:10:55;99707.59;;;4.64;100.00
74960;BME280;63518;49.572;1.106;2024-03-23T06:13:23;99713.56;;;4.61;100.00
74960;BME280;63518;49.572;1.106;2024-03-23T06:15:55;99711.75;;;4.89;100.00
74960;BME280;63518;49.572;1.106;2024-03-23T06:18:25;99713.03;;;4.81;100.00
74960;BME280;63518;49.572;1.106;2024-03-23T06:20:52;99716.22;;;4.56;100.00
74960;BME280;63518;49.572;1.106;2024-03-23T06:23:41;99706.03;;;4.52;100.00
74960;BME280;63518;49.572;1.106;2024-03-23T06:26:10;99714.97;;;4.64;100.00
74960;BME280;63518;49.572;1.106;2024-03-23T06:28:36;99709.34;;;4.54;100.00
74960;BME280;63518;49.572;1.106;2024-03-23T06:31:03;99719.22;;;4.38;100.00
74960;BME280;63518;49.572;1.106;2024-03-23T06:33:35;99725.59;;;4.27;100.00
74960;BME280;63518;49.572;1.106;2024-03-23T06:36:11;99723.19;;;4.30;100.00
74960;BME280;63518;49.572;1.106;2024-03-23T06:38:40;99708.28;;;4.04;100.00
74960;BME280;63518;49.572;1.106;2024-03-23T06:41:08;99721.53;;;4.29;100.00
74960;BME280;63518;49.572;1.106;2024-03-23T06:43:37;99727.25;;;4.28;100.00
74960;BME280;63518;49.572;1.106;2024-03-23T06:46:05;99740.66;;;4.12;100.00
74960;BME280;63518;49.572;1.106;2024-03-23T06:48:32;99733.22;;;4.25;100.00
74960;BME280;63518;49.572;1.106;2024-03-23T06:51:04;99742.81;;;4.44;100.00
74960;BME280;63518;49.572;1.106;2024-03-23T06:53:30;99727.91;;;4.52;100.00
74960;BME280;63518;49.572;1.106;2024-03-23T06:55:56;99736.00;;;4.63;100.00
74960;BME280;63518;49.572;1.106;2024-03-23T06:58:27;99726.38;;;4.77;100.00
74960;BME280;63518;49.572;1.106;2024-03-23T07:00:52;99724.50;;;4.61;100.00
74960;BME280;63518;49.572;1.106;2024-03-23T07:03:18;99724.41;;;4.73;100.00
74960;BME280;63518;49.572;1.106;2024-03-23T07:05:46;99721.78;;;4.83;100.00
74960;BME280;63518;49.572;1.106;2024-03-23T07:08:13;99723.66;;;4.99;100.00
74960;BME280;63518;49.572;1.106;2024-03-23T07:10:45;99725.78;;;5.14;100.00
74960;BME280;63518;49.572;1.106;2024-03-23T07:13:11;99733.66;;;4.89;100.00
74960;BME280;63518;49.572;1.106;2024-03-23T07:15:39;99723.63;;;4.22;100.00
74960;BME280;63518;49.572;1.106;2024-03-23T07:18:06;99723.81;;;3.87;100.00
74960;BME280;63518;49.572;1.106;2024-03-23T07:20:31;99748.09;;;4.00;100.00
74960;BME280;63518;49.572;1.106;2024-03-23T07:22:58;99708.22;;;3.42;100.00
74960;BME280;63518;49.572;1.106;2024-03-23T07:25:30;99729.97;;;3.65;100.00
74960;BME280;63518;49.572;1.106;2024-03-23T07:28:09;99736.84;;;3.68;100.00
74960;BME280;63518;49.572;1.106;2024-03-23T07:30:42;99739.84;;;3.67;100.00
74960;BME280;63518;49.572;1.106;2024-03-23T07:33:09;99733.47;;;3.78;100.00
74960;BME280;63518;49.572;1.106;2024-03-23T07:35:36;99733.72;;;3.48;100.00
74960;BME280;63518;49.572;1.106;2024-03-23T07:38:01;99736.50;;;3.64;100.00
74960;BME280;63518;49.572;1.106;2024-03-23T07:40:31;99740.84;;;3.77;100.00
74960;BME280;63518;49.572;1.106;2024-03-23T07:43:01;99736.69;;;4.37;100.00
74960;BME280;63518;49.572;1.106;2024-03-23T07:45:31;99745.22;;;4.57;100.00
74960;BME280;63518;49.572;1.106;2024-03-23T07:47:56;99742.13;;;5.31;100.00
74960;BME280;63518;49.572;1.106;2024-03-23T07:50:25;99739.59;;;5.46;100.00
74960;BME280;63518;49.572;1.106;2024-03-23T07:52:51;99745.03;;;4.64;100.00
74960;BME280;63518;49.572;1.106;2024-03-23T07:55:20;99739.97;;;5.11;100.00
74960;BME280;63518;49.572;1.106;2024-03-23T07:57:51;99739.44;;;4.92;100.00
74960;BME280;63518;49.572;1.106;2024-03-23T08:00:24;99745.59;;;5.70;100.00
74960;BME280;63518;49.572;1.106;2024-03-23T08:02:55;99733.88;;;5.75;100.00
74960;BME280;63518;49.572;1.106;2024-03-23T08:05:26;99738.28;;;5.76;100.00
74960;BME280;63518;49.572;1.106;2024-03-23T08:07:54;99744.88;;;5.53;100.00
74960;BME280;63518;49.572;1.106;2024-03-23T08:10:25;99742.50;;;4.96;100.00
74960;BME280;63518;49.572;1.106;2024-03-23T08:12:57;99743.97;;;5.03;100.00
74960;BME280;63518;49.572;1.106;2024-03-23T08:15:29;99741.69;;;4.95;100.00
74960;BME280;63518;49.572;1.106;2024-03-23T08:17:59;99751.63;;;5.23;100.00
74960;BME280;63518;49.572;1.106;2024-03-23T08:20:25;99757.34;;;5.44;100.00
74960;BME280;63518;49.572;1.106;2024-03-23T08:22:54;99749.25;;;5.76;100.00
74960;BME280;63518;49.572;1.106;2024-03-23T08:25:23;99748.72;;;6.33;100.00
74960;BME280;63518;49.572;1.106;2024-03-23T08:27:53;99741.16;;;6.45;100.00
74960;BME280;63518;49.572;1.106;2024-03-23T08:30:28;99742.47;;;6.37;100.00
74960;BME280;63518;49.572;1.106;2024-03-23T08:32:58;99740.53;;;5.57;100.00
74960;BME280;63518;49.572;1.106;2024-03-23T08:35:30;99740.59;;;6.43;100.00
74960;BME280;63518;49.572;1.106;2024-03-23T08:37:57;99739.78;;;6.15;100.00
74960;BME280;63518;49.572;1.106;2024-03-23T08:40:23;99741.09;;;5.81;100.00
74960;BME280;63518;49.572;1.106;2024-03-23T08:42:50;99729.53;;;6.33;100.00
74960;BME280;63518;49.572;1.106;2024-03-23T08:45:16;99735.59;;;5.81;100.00
74960;BME280;63518;49.572;1.106;2024-03-23T08:47:44;99745.06;;;5.46;100.00
74960;BME280;63518;49.572;1.106;2024-03-23T08:50:13;99737.53;;;3.75;100.00
74960;BME280;63518;49.572;1.106;2024-03-23T08:52:42;99748.50;;;3.92;100.00
74960;BME280;63518;49.572;1.106;2024-03-23T08:55:09;99746.44;;;4.66;100.00
74960;BME280;63518;49.572;1.106;2024-03-23T08:57:39;99748.38;;;5.04;100.00
74960;BME280;63518;49.572;1.106;2024-03-23T09:00:05;99730.47;;;4.58;100.00
74960;BME280;63518;49.572;1.106;2024-03-23T09:02:35;99731.13;;;5.04;100.00
74960;BME280;63518;49.572;1.106;2024-03-23T09:05:15;99729.34;;;5.37;100.00
74960;BME280;63518;49.572;1.106;2024-03-23T09:07:43;99725.13;;;6.32;100.00
74960;BME280;63518;49.572;1.106;2024-03-23T09:10:11;99724.47;;;6.52;100.00
74960;BME280;63518;49.572;1.106;2024-03-23T09:12:38;99721.69;;;6.47;100.00
74960;BME280;63518;49.572;1.106;2024-03-23T09:15:11;99713.28;;;6.21;100.00
74960;BME280;63518;49.572;1.106;2024-03-23T09:17:40;99724.78;;;5.42;100.00
74960;BME280;63518;49.572;1.106;2024-03-23T09:20:05;99738.75;;;5.46;100.00
74960;BME280;63518;49.572;1.106;2024-03-23T09:22:32;99732.84;;;4.71;100.00
74960;BME280;63518;49.572;1.106;2024-03-23T09:25:05;99734.28;;;4.96;100.00
74960;BME280;63518;49.572;1.106;2024-03-23T09:27:34;99735.00;;;4.86;100.00
74960;BME280;63518;49.572;1.106;2024-03-23T09:30:04;99735.25;;;5.06;100.00
74960;BME280;63518;49.572;1.106;2024-03-23T09:32:32;99730.28;;;6.23;100.00
74960;BME280;63518;49.572;1.106;2024-03-23T09:34:58;99729.09;;;6.14;100.00
74960;BME280;63518;49.572;1.106;2024-03-23T09:37:25;99719.09;;;6.67;100.00
74960;BME280;63518;49.572;1.106;2024-03-23T09:39:50;99720.59;;;7.52;100.00
74960;BME280;63518;49.572;1.106;2024-03-23T09:42:17;99729.13;;;7.46;100.00
74960;BME280;63518;49.572;1.106;2024-03-23T09:44:45;99722.84;;;6.51;100.00
74960;BME280;63518;49.572;1.106;2024-03-23T09:47:10;99718.00;;;6.68;100.00
74960;BME280;63518;49.572;1.106;2024-03-23T09:49:38;99710.56;;;6.26;100.00
74960;BME280;63518;49.572;1.106;2024-03-23T09:52:21;99718.63;;;6.06;100.00
74960;BME280;63518;49.572;1.106;2024-03-23T09:54:48;99706.69;;;5.90;100.00
74960;BME280;63518;49.572;1.106;2024-03-23T09:57:16;99713.50;;;6.52;100.00
74960;BME280;63518;49.572;1.106;2024-03-23T09:59:43;99707.50;;;7.02;100.00
74960;BME280;63518;49.572;1.106;2024-03-23T10:02:09;99709.19;;;7.08;100.00
74960;BME280;63518;49.572;1.106;2024-03-23T10:04:40;99700.31;;;7.69;100.00
74960;BME280;63518;49.572;1.106;2024-03-23T10:07:10;99684.13;;;7.62;100.00
74960;BME280;63518;49.572;1.106;2024-03-23T10:09:38;99695.34;;;7.45;100.00
74960;BME280;63518;49.572;1.106;2024-03-23T10:12:09;99695.16;;;7.82;100.00
74960;BME280;63518;49.572;1.106;2024-03-23T10:14:36;99700.13;;;7.86;100.00
74960;BME280;63518;49.572;1.106;2024-03-23T10:17:11;99700.41;;;7.94;100.00
74960;BME280;63518;49.572;1.106;2024-03-23T10:19:47;99687.19;;;8.62;100.00
74960;BME280;63518;49.572;1.106;2024-03-23T10:22:22;99682.78;;;8.61;100.00
74960;BME280;63518;49.572;1.106;2024-03-23T10:25:06;99673.97;;;8.69;100.00
74960;BME280;63518;49.572;1.106;2024-03-23T10:27:36;99676.75;;;7.83;100.00
74960;BME280;63518;49.572;1.106;2024-03-23T10:30:09;99674.84;;;8.04;100.00
74960;BME280;63518;49.572;1.106;2024-03-23T10:32:36;99666.78;;;7.46;100.00
74960;BME280;63518;49.572;1.106;2024-03-23T10:35:21;99663.00;;;8.39;100.00
74960;BME280;63518;49.572;1.106;2024-03-23T10:37:48;99649.44;;;8.78;100.00
74960;BME280;63518;49.572;1.106;2024-03-23T10:40:20;99655.34;;;7.95;100.00
74960;BME280;63518;49.572;1.106;2024-03-23T10:42:46;99682.00;;;7.90;100.00
74960;BME280;63518;49.572;1.106;2024-03-23T10:45:15;99661.94;;;8.09;100.00
74960;BME280;63518;49.572;1.106;2024-03-23T10:47:42;99641.31;;;8.07;100.00
74960;BME280;63518;49.572;1.106;2024-03-23T10:50:13;99658.69;;;7.09;100.00
74960;BME280;63518;49.572;1.106;2024-03-23T10:52:45;99663.50;;;8.82;100.00
74960;BME280;63518;49.572;1.106;2024-03-23T10:55:14;99664.94;;;8.64;100.00
74960;BME280;63518;49.572;1.106;2024-03-23T10:57:48;99647.06;;;8.31;100.00
74960;BME280;63518;49.572;1.106;2024-03-23T11:00:15;99639.53;;;7.35;100.00
74960;BME280;63518;49.572;1.106;2024-03-23T11:02:43;99637.78;;;7.03;100.00
74960;BME280;63518;49.572;1.106;2024-03-23T11:07:53;99633.25;;;7.44;100.00
74960;BME280;63518;49.572;1.106;2024-03-23T11:16:12;99625.19;;;9.50;100.00
74960;BME280;63518;49.572;1.106;2024-03-23T11:18:43;99629.47;;;8.37;100.00
74960;BME280;63518;49.572;1.106;2024-03-23T11:24:14;99606.56;;;7.24;100.00
74960;BME280;63518;49.572;1.106;2024-03-23T11:26:44;99638.81;;;6.87;100.00
74960;BME280;63518;49.572;1.106;2024-03-23T11:29:12;99619.97;;;7.11;100.00
74960;BME280;63518;49.572;1.106;2024-03-23T11:31:48;99623.13;;;8.52;100.00
74960;BME280;63518;49.572;1.106;2024-03-23T11:34:15;99627.66;;;8.97;100.00
74960;BME280;63518;49.572;1.106;2024-03-23T11:36:43;99617.38;;;8.23;100.00
74960;BME280;63518;49.572;1.106;2024-03-23T11:39:19;99605.25;;;8.49;100.00
74960;BME280;63518;49.572;1.106;2024-03-23T11:41:47;99611.78;;;8.74;100.00
74960;BME280;63518;49.572;1.106;2024-03-23T11:44:25;99605.88;;;7.80;100.00
74960;BME280;63518;49.572;1.106;2024-03-23T11:46:53;99603.09;;;7.75;100.00
74960;BME280;63518;49.572;1.106;2024-03-23T11:49:26;99607.72;;;7.39;100.00
74960;BME280;63518;49.572;1.106;2024-03-23T11:51:56;99616.25;;;7.63;100.00
74960;BME280;63518;49.572;1.106;2024-03-23T11:54:26;99627.13;;;7.07;100.00
74960;BME280;63518;49.572;1.106;2024-03-23T11:57:00;99614.63;;;8.07;100.00
74960;BME280;63518;49.572;1.106;2024-03-23T11:59:44;99601.41;;;7.69;100.00
74960;BME280;63518;49.572;1.106;2024-03-23T12:02:18;99607.19;;;6.74;100.00
74960;BME280;63518;49.572;1.106;2024-03-23T12:04:46;99598.09;;;7.51;100.00
74960;BME280;63518;49.572;1.106;2024-03-23T12:07:19;99604.44;;;7.57;100.00
74960;BME280;63518;49.572;1.106;2024-03-23T12:10:02;99599.59;;;8.90;100.00
74960;BME280;63518;49.572;1.106;2024-03-23T12:12:36;99579.31;;;9.35;100.00
74960;BME280;63518;49.572;1.106;2024-03-23T12:15:07;99579.84;;;8.73;100.00
74960;BME280;63518;49.572;1.106;2024-03-23T12:17:37;99566.19;;;8.37;100.00
74960;BME280;63518;49.572;1.106;2024-03-23T12:20:03;99568.38;;;8.50;100.00
74960;BME280;63518;49.572;1.106;2024-03-23T12:22:38;99565.66;;;8.35;100.00
74960;BME280;63518;49.572;1.106;2024-03-23T12:25:05;99555.00;;;7.62;100.00
74960;BME280;63518;49.572;1.106;2024-03-23T12:27:32;99553.63;;;7.90;100.00
74960;BME280;63518;49.572;1.106;2024-03-23T12:30:02;99557.66;;;8.44;100.00
74960;BME280;63518;49.572;1.106;2024-03-23T12:32:29;99536.81;;;7.20;100.00
74960;BME280;63518;49.572;1.106;2024-03-23T12:34:56;99550.66;;;8.77;100.00
74960;BME280;63518;49.572;1.106;2024-03-23T12:37:26;99545.44;;;9.69;100.00
74960;BME280;63518;49.572;1.106;2024-03-23T12:39:51;99543.53;;;9.64;100.00
74960;BME280;63518;49.572;1.106;2024-03-23T12:42:21;99497.97;;;8.39;100.00
74960;BME280;63518;49.572;1.106;2024-03-23T12:44:50;99526.31;;;8.99;100.00
74960;BME280;63518;49.572;1.106;2024-03-23T12:47:16;99525.13;;;8.66;100.00
74960;BME280;63518;49.572;1.106;2024-03-23T12:49:42;99529.19;;;7.73;100.00
74960;BME280;63518;49.572;1.106;2024-03-23T12:52:11;99499.00;;;8.58;100.00
74960;BME280;63518;49.572;1.106;2024-03-23T12:54:38;99494.59;;;9.12;100.00
74960;BME280;63518;49.572;1.106;2024-03-23T12:57:05;99479.84;;;9.66;100.00
74960;BME280;63518;49.572;1.106;2024-03-23T12:59:30;99499.84;;;9.03;100.00
74960;BME280;63518;49.572;1.106;2024-03-23T13:01:59;99492.13;;;8.56;100.00
74960;BME280;63518;49.572;1.106;2024-03-23T13:04:25;99493.88;;;8.31;100.00
74960;BME280;63518;49.572;1.106;2024-03-23T13:06:51;99484.50;;;8.43;100.00
74960;BME280;63518;49.572;1.106;2024-03-23T13:09:19;99478.88;;;8.63;100.00
74960;BME280;63518;49.572;1.106;2024-03-23T13:11:54;99460.91;;;8.26;100.00
74960;BME280;63518;49.572;1.106;2024-03-23T13:14:22;99462.84;;;8.16;100.00
74960;BME280;63518;49.572;1.106;2024-03-23T13:16:49;99472.63;;;8.47;100.00
74960;BME280;63518;49.572;1.106;2024-03-23T13:19:21;99464.09;;;7.38;100.00
74960;BME280;63518;49.572;1.106;2024-03-23T13:22:02;99460.72;;;7.92;100.00
74960;BME280;63518;49.572;1.106;2024-03-23T13:24:30;99463.25;;;7.78;100.00
74960;BME280;63518;49.572;1.106;2024-03-23T13:26:59;99460.22;;;7.34;100.00
74960;BME280;63518;49.572;1.106;2024-03-23T13:29:26;99455.28;;;7.41;100.00
74960;BME280;63518;49.572;1.106;2024-03-23T13:31:53;99475.03;;;7.02;100.00
74960;BME280;63518;49.572;1.106;2024-03-23T13:34:23;99470.38;;;7.08;100.00
74960;BME280;63518;49.572;1.106;2024-03-23T13:36:51;99487.34;;;6.90;100.00
74960;BME280;63518;49.572;1.106;2024-03-23T13:39:36;99464.06;;;7.28;100.00
74960;BME280;63518;49.572;1.106;2024-03-23T13:42:03;99462.13;;;7.44;100.00
74960;BME280;63518;49.572;1.106;2024-03-23T13:44:32;99488.19;;;6.85;100.00
74960;BME280;63518;49.572;1.106;2024-03-23T13:47:01;99455.53;;;6.06;100.00
74960;BME280;63518;49.572;1.106;2024-03-23T13:49:32;99476.13;;;6.13;100.00
74960;BME280;63518;49.572;1.106;2024-03-23T13:52:02;99481.34;;;6.15;100.00
74960;BME280;63518;49.572;1.106;2024-03-23T13:54:28;99484.13;;;6.25;100.00
74960;BME280;63518;49.572;1.106;2024-03-23T13:57:01;99487.09;;;6.18;100.00
74960;BME280;63518;49.572;1.106;2024-03-23T13:59:28;99500.50;;;5.36;100.00
74960;BME280;63518;49.572;1.106;2024-03-23T14:01:58;99518.13;;;5.18;100.00
74960;BME280;63518;49.572;1.106;2024-03-23T14:04:24;99543.31;;;4.05;100.00
74960;BME280;63518;49.572;1.106;2024-03-23T14:06:52;99592.31;;;2.36;100.00
74960;BME280;63518;49.572;1.106;2024-03-23T14:09:19;99594.03;;;1.36;100.00
74960;BME280;63518;49.572;1.106;2024-03-23T14:12:11;99509.78;;;0.95;100.00
74960;BME280;63518;49.572;1.106;2024-03-23T14:14:36;99513.44;;;1.54;100.00
74960;BME280;63518;49.572;1.106;2024-03-23T14:17:08;99545.00;;;2.02;100.00
74960;BME280;63518;49.572;1.106;2024-03-23T14:19:35;99531.38;;;2.25;100.00
74960;BME280;63518;49.572;1.106;2024-03-23T14:22:01;99532.22;;;2.54;100.00
74960;BME280;63518;49.572;1.106;2024-03-23T14:24:33;99539.94;;;2.45;100.00